Time;durP1;ratioP1;P1;durP2;ratioP2;P2;SDS_P1;SDS_P2;PMS_P1;PMS_P2;Temp;Humidity;BMP_temperature;BMP_pressure;BME280_temperature;BME280_humidity;BME280_pressure;Samples;Min_cycle;Max_cycle;Signal;HPM_P1;HPM_P2
2022/01/09 00:00:18;;;;;;;5.45;4.93;;;;;;;;;;5089094;28;20473;-73
2022/01/09 00:02:44;;;;;;;8.35;6.28;;;;;;;;;;5091663;28;20028;-73
2022/01/09 00:05:10;;;;;;;9.50;7.63;;;;;;;;;;5091423;28;20055;-73
2022/01/09 00:07:37;;;;;;;8.15;6.80;;;;;;;;;;5091627;28;20036;-73
2022/01/09 00:10:04;;;;;;;9.32;7.55;;;;;;;;;;5091410;28;20056;-73
2022/01/09 00:12:30;;;;;;;6.72;5.95;;;;;;;;;;5091576;28;20112;-73
2022/01/09 00:14:59;;;;;;;10.50;7.07;;;;;;;;;;5077633;28;20077;-73
2022/01/09 00:17:25;;;;;;;8.88;6.72;;;;;;;;;;5071460;28;20028;-73
2022/01/09 00:19:51;;;;;;;9.20;6.30;;;;;;;;;;5071328;28;20672;-73
2022/01/09 00:22:22;;;;;;;9.45;7.18;;;;;;;;;;5053243;28;20638;-73
2022/01/09 00:24:48;;;;;;;7.72;6.38;;;;;;;;;;5070883;28;20095;-73
2022/01/09 00:27:14;;;;;;;13.52;9.48;;;;;;;;;;5070553;28;20532;-73
2022/01/09 00:29:40;;;;;;;18.45;10.23;;;;;;;;;;5071187;28;20115;-73
2022/01/09 00:32:06;;;;;;;18.98;11.32;;;;;;;;;;5071278;28;20168;-73
2022/01/09 00:34:33;;;;;;;10.43;8.10;;;;;;;;;;5070438;28;20526;-73
2022/01/09 00:36:59;;;;;;;9.85;7.75;;;;;;;;;;5074451;28;20028;-73
2022/01/09 00:39:25;;;;;;;12.85;8.85;;;;;;;;;;5090171;28;20031;-73
2022/01/09 00:41:51;;;;;;;18.10;10.57;;;;;;;;;;5094870;28;20431;-73
2022/01/09 00:44:17;;;;;;;14.82;10.30;;;;;;;;;;5095035;28;20527;-73
2022/01/09 00:46:43;;;;;;;14.82;10.95;;;;;;;;;;5077055;28;20032;-73
2022/01/09 00:49:09;;;;;;;14.98;10.68;;;;;;;;;;5095329;28;20035;-73
2022/01/09 00:51:35;;;;;;;15.05;9.93;;;;;;;;;;5095319;28;20035;-73
2022/01/09 00:54:01;;;;;;;14.25;8.73;;;;;;;;;;5094956;28;20020;-73
2022/01/09 00:56:27;;;;;;;13.80;9.02;;;;;;;;;;5095083;28;20020;-73
2022/01/09 00:58:53;;;;;;;14.55;9.63;;;;;;;;;;5094945;28;20474;-73
2022/01/09 01:01:19;;;;;;;9.70;5.85;;;;;;;;;;5076783;28;20101;-74
2022/01/09 01:03:45;;;;;;;9.05;5.22;;;;;;;;;;5094910;28;20442;-73
2022/01/09 01:06:13;;;;;;;9.82;4.95;;;;;;;;;;5095021;28;20032;-73
2022/01/09 01:08:39;;;;;;;17.30;4.13;;;;;;;;;;5094752;28;20020;-73
2022/01/09 01:11:05;;;;;;;17.90;3.25;;;;;;;;;;5078522;28;20128;-73
2022/01/09 01:13:31;;;;;;;23.45;3.72;;;6.60;99.90;;;;;;5074692;28;20390;-73
2022/01/09 01:15:58;;;;;;;29.40;4.03;;;;;;;;;;5074819;28;20027;-73
2022/01/09 01:18:24;;;;;;;27.23;4.07;;;;;;;;;;5074508;28;20412;-73
2022/01/09 01:20:50;;;;;;;26.13;3.65;;;;;;;;;;5074476;28;20029;-73
2022/01/09 01:23:16;;;;;;;30.25;5.05;;;6.80;99.90;;;;;;5074329;28;20025;-73
2022/01/09 01:25:44;;;;;;;34.58;4.78;;;6.70;99.90;;;;;;5074287;28;20030;-73
2022/01/09 01:28:10;;;;;;;32.30;5.25;;;;;;;;;;5074229;28;20035;-73
2022/01/09 01:30:36;;;;;;;37.30;4.57;;;6.70;99.90;;;;;;5074244;28;20115;-73
2022/01/09 01:33:02;;;;;;;35.95;4.93;;;;;;;;;;5074514;28;20103;-73
2022/01/09 01:35:28;;;;;;;47.10;5.15;;;;;;;;;;5074320;28;20048;-73
2022/01/09 01:37:54;;;;;;;34.70;4.80;;;;;;;;;;5076554;28;20056;-73
2022/01/09 01:40:22;;;;;;;44.65;5.13;;;;;;;;;;5094329;28;20093;-74
2022/01/09 01:42:48;;;;;;;38.70;4.93;;;;;;;;;;5094517;28;20024;-74
2022/01/09 01:45:14;;;;;;;47.17;5.10;;;;;;;;;;5094018;28;20044;-74
2022/01/09 01:47:43;;;;;;;37.13;4.85;;;;;;;;;;5093694;28;20470;-74
2022/01/09 01:50:11;;;;;;;48.95;5.90;;;;;;;;;;5094227;28;20068;-73
2022/01/09 01:52:41;;;;;;;51.85;5.50;;;;;;;;;;5094214;28;20023;-74
2022/01/09 01:55:08;;;;;;;52.42;6.07;;;;;;;;;;5094127;28;20016;-74
2022/01/09 01:57:36;;;;;;;52.15;5.35;;;;;;;;;;5094256;28;20028;-73
2022/01/09 02:00:04;;;;;;;51.95;6.03;;;;;;;;;;5093733;28;20035;-74
2022/01/09 02:02:30;;;;;;;56.20;6.80;;;;;;;;;;5093922;28;20024;-73
2022/01/09 02:04:56;;;;;;;34.80;6.10;;;;;;;;;;5093159;28;20524;-73
2022/01/09 02:07:23;;;;;;;50.10;5.68;;;;;;;;;;5093878;28;20064;-73
2022/01/09 02:09:49;;;;;;;40.63;4.43;;;;;;;;;;5087584;28;20037;-73
2022/01/09 02:12:16;;;;;;;39.72;5.10;;;;;;;;;;5073480;28;20125;-75
2022/01/09 02:14:47;;;;;;;44.05;5.15;;;;;;;;;;5073341;28;20398;-74
2022/01/09 02:17:20;;;;;;;51.97;6.28;;;;;;;;;;5055509;28;20025;-74
2022/01/09 02:20:05;;;;;;;58.92;7.28;;;;;;;;;;5073186;28;20016;-75
2022/01/09 02:22:34;;;;;;;48.17;4.93;;;;;;;;;;5073049;28;20538;-72
2022/01/09 02:25:01;;;;;;;40.40;5.25;;;;;;;;;;5073053;28;20027;-74
2022/01/09 02:27:27;;;;;;;46.00;4.93;;;;;;;;;;5073322;28;20067;-73
2022/01/09 02:29:53;;;;;;;35.25;5.22;;;;;;;;;;5072960;28;20505;-72
2022/01/09 02:32:19;;;;;;;38.13;4.78;;;;;;;;;;5073205;28;20044;-72
2022/01/09 02:34:46;;;;;;;38.40;5.13;;;;;;;;;;5073139;28;20020;-72
2022/01/09 02:37:12;;;;;;;41.08;6.32;;;;;;;;;;5073215;28;20028;-74
2022/01/09 02:39:38;;;;;;;40.58;4.03;;;;;;;;;;5071823;28;20150;-72
2022/01/09 02:42:08;;;;;;;40.42;4.57;;;;;;;;;;5093210;28;20024;-72
2022/01/09 02:44:34;;;;;;;44.92;4.18;;;;;;;;;;5092893;28;20675;-74
2022/01/09 02:47:05;;;;;;;50.17;6.43;;;;;;;;;;5093326;28;20447;-72
2022/01/09 02:49:32;;;;;;;32.28;4.43;;;;;;;;;;5092793;28;20063;-72
2022/01/09 02:51:58;;;;;;;42.90;6.00;;;;;;;;;;5093110;28;20016;-72
2022/01/09 02:57:10;;;;;;;50.13;5.03;;;;;;;;;;5093005;28;20382;-72
2022/01/09 02:59:36;;;;;;;44.72;5.25;;;;;;;;;;5091840;28;20028;-72
2022/01/09 03:02:02;;;;;;;39.28;5.10;;;;;;;;;;5092707;28;20109;-75
2022/01/09 03:04:28;;;;;;;37.45;5.05;;;;;;;;;;5092623;28;20036;-72
2022/01/09 03:06:54;;;;;;;41.70;5.25;;;;;;;;;;5092957;28;20031;-74
2022/01/09 03:09:20;;;;;;;27.77;3.80;;;;;;;;;;5090555;28;20785;-72
2022/01/09 03:11:47;;;;;;;40.88;5.80;;;;;;;;;;5072505;28;20389;-72
2022/01/09 03:14:13;;;;;;;35.58;4.88;;;;;;;;;;5072209;28;20451;-72
2022/01/09 03:16:39;;;;;;;34.90;5.03;;;;;;;;;;5072288;28;20016;-74
2022/01/09 03:19:05;;;;;;;38.63;4.28;;;;;;;;;;5072207;28;20036;-72
2022/01/09 03:21:31;;;;;;;42.90;4.57;;;;;;;;;;5054325;28;20387;-73
2022/01/09 03:23:58;;;;;;;35.25;3.97;;;;;;;;;;5071994;28;20093;-72
2022/01/09 03:26:24;;;;;;;33.63;5.43;;;;;;;;;;5072243;28;20103;-72
2022/01/09 03:28:50;;;;;;;20.70;2.92;;;;;;;;;;5072120;28;20094;-72
2022/01/09 03:31:16;;;;;;;40.53;4.05;;;;;;;;;;5072150;28;20029;-73
2022/01/09 03:33:42;;;;;;;37.05;3.65;;;;;;;;;;5072011;28;20429;-75
2022/01/09 03:36:08;;;;;;;33.88;4.78;;;;;;;;;;5053992;28;20024;-75
2022/01/09 03:38:34;;;;;;;23.42;3.45;;;;;;;;;;5079921;28;20081;-75
2022/01/09 03:41:00;;;;;;;23.48;3.83;;;;;;;;;;5092163;28;20028;-75
2022/01/09 03:43:26;;;;;;;24.90;3.47;;;;;;;;;;5091882;28;20052;-72
2022/01/09 03:45:52;;;;;;;29.58;4.38;;;;;;;;;;5092123;28;20044;-75
2022/01/09 03:48:18;;;;;;;19.65;3.00;;;;;;;;;;5092067;28;20020;-75
2022/01/09 03:50:50;;;;;;;29.73;3.28;;;;;;;;;;5073638;28;20039;-74
2022/01/09 03:53:16;;;;;;;28.60;3.05;;;;;;;;;;5091833;28;20018;-73
2022/01/09 03:55:42;;;;;;;27.77;3.33;;;;;;;;;;5073717;28;20388;-75
2022/01/09 03:58:07;;;;;;;24.90;4.13;;;6.60;99.90;;;;;;5091939;28;20062;-73
2022/01/09 04:00:33;;;;;;;28.92;4.88;;;6.60;99.90;;;;;;5091927;28;20067;-72
2022/01/09 04:02:59;;;;;;;24.75;3.63;;;6.60;99.90;;;;;;5091826;28;20032;-75
2022/01/09 04:05:24;;;;;;;25.70;4.15;;;6.60;99.90;;;;;;5091850;28;20477;-74
2022/01/09 04:07:51;;;;;;;33.03;3.67;;;6.60;99.90;;;;;;5091855;28;20058;-75
2022/01/09 04:10:18;;;;;;;23.25;4.35;;;6.60;99.90;;;;;;5072914;28;20032;-74
2022/01/09 04:12:49;;;;;;;25.77;3.17;;;6.50;99.90;;;;;;5091899;28;20035;-74
2022/01/09 04:15:16;;;;;;;28.05;3.50;;;6.50;99.90;;;;;;5091668;28;20016;-74
2022/01/09 04:17:55;;;;;;;16.33;2.78;;;;;;;;;;5091932;28;20058;-74
2022/01/09 04:20:26;;;;;;;30.67;4.13;;;6.60;99.90;;;;;;5091781;28;20063;-74
2022/01/09 04:22:53;;;;;;;33.50;2.77;;;6.60;99.90;;;;;;5091733;28;20407;-74
2022/01/09 04:25:19;;;;;;;29.08;3.05;;;6.50;99.90;;;;;;5091576;28;20266;-74
2022/01/09 04:27:47;;;;;;;18.98;2.50;;;6.60;99.90;;;;;;5091600;28;20039;-74
2022/01/09 04:30:12;;;;;;;26.08;2.92;;;6.50;99.90;;;;;;5091494;28;20028;-75
2022/01/09 04:32:39;;;;;;;25.88;2.92;;;6.40;99.90;;;;;;5091593;28;20023;-74
2022/01/09 04:35:05;;;;;;;26.13;3.05;;;6.40;99.90;;;;;;5073197;28;20042;-74
2022/01/09 04:37:33;;;;;;;28.85;3.15;;;6.30;99.90;;;;;;5091772;28;20062;-74
2022/01/09 04:39:58;;;;;;;26.77;3.10;;;6.30;99.90;;;;;;5071589;28;20016;-74
2022/01/09 04:42:31;;;;;;;27.95;3.40;;;6.30;99.90;;;;;;5071237;28;20024;-74
2022/01/09 04:44:57;;;;;;;26.35;2.80;;;6.30;99.90;;;;;;5071013;28;20172;-75
2022/01/09 04:47:23;;;;;;;23.48;2.95;;;;;;;;;;5071284;28;20123;-74
2022/01/09 04:49:50;;;;;;;18.90;3.13;;;;;;;;;;5071111;28;20040;-74
2022/01/09 04:52:20;;;;;;;33.45;4.20;;;;;;;;;;5071391;28;20115;-74
2022/01/09 04:54:46;;;;;;;23.50;2.50;;;;;;;;;;5071108;28;20024;-74
2022/01/09 04:57:12;;;;;;;19.83;3.55;;;;;;;;;;5071204;28;20082;-74
2022/01/09 04:59:38;;;;;;;21.67;2.67;;;;;;;;;;5083394;28;20036;-74
2022/01/09 05:02:05;;;;;;;16.88;3.50;;;;;;;;;;5091418;28;20343;-74
2022/01/09 05:04:31;;;;;;;29.05;2.92;;;;;;;;;;5091232;28;20035;-75
2022/01/09 05:06:57;;;;;;;27.45;4.22;;;;;;;;;;5091405;28;20031;-74
2022/01/09 05:09:23;;;;;;;22.17;2.88;;;;;;;;;;5088885;28;20064;-75
2022/01/09 05:11:48;;;;;;;22.42;2.72;;;6.10;99.90;;;;;;5071105;28;20021;-74
2022/01/09 05:14:14;;;;;;;24.00;2.92;;;;;;;;;;5070905;28;20047;-74
2022/01/09 05:16:44;;;;;;;29.15;3.08;;;;;;;;;;5071139;28;20753;-74
2022/01/09 05:19:17;;;;;;;22.65;2.97;;;;;;;;;;5053064;28;20431;-74
2022/01/09 05:21:43;;;;;;;20.95;3.08;;;;;;;;;;5072083;28;20036;-74
2022/01/09 05:24:09;;;;;;;25.88;3.08;;;;;;;;;;5074313;28;20025;-74
2022/01/09 05:26:35;;;;;;;24.13;3.47;;;;;;;;;;5074496;28;20024;-74
2022/01/09 05:29:01;;;;;;;20.02;3.40;;;;;;;;;;5074269;28;20032;-74
2022/01/09 05:31:27;;;;;;;22.65;3.00;;;;;;;;;;5074412;28;20025;-74
2022/01/09 05:33:53;;;;;;;19.13;3.25;;;;;;;;;;5074183;28;20017;-74
2022/01/09 05:36:19;;;;;;;19.27;3.30;;;;;;;;;;5074249;28;20451;-74
2022/01/09 05:38:46;;;;;;;23.17;3.78;;;;;;;;;;5083919;28;20032;-75
2022/01/09 05:41:12;;;;;;;20.02;3.03;;;;;;;;;;5094306;28;20032;-74
2022/01/09 05:43:39;;;;;;;17.38;2.08;;;;;;;;;;5094455;28;20024;-74
2022/01/09 05:46:05;;;;;;;32.75;4.28;;;;;;;;;;5094002;28;20352;-74
2022/01/09 05:48:32;;;;;;;31.30;3.08;;;;;;;;;;5094216;28;20031;-74
2022/01/09 05:50:58;;;;;;;27.10;3.22;;;;;;;;;;5094173;28;20054;-74
2022/01/09 05:53:24;;;;;;;29.30;4.38;;;;;;;;;;5075954;28;20028;-74
2022/01/09 05:55:50;;;;;;;19.88;2.50;;;;;;;;;;5094160;28;20097;-74
2022/01/09 05:58:16;;;;;;;21.27;3.03;;;;;;;;;;5094140;28;20081;-74
2022/01/09 06:00:41;;;;;;;24.88;2.78;;;5.80;99.90;;;;;;5094028;28;20040;-74
2022/01/09 06:03:07;;;;;;;34.80;3.85;;;5.90;99.90;;;;;;5093958;28;20024;-74
2022/01/09 06:05:33;;;;;;;23.65;3.88;;;6.00;99.90;;;;;;5093930;28;20100;-74
2022/01/09 06:07:58;;;;;;;18.02;2.63;;;6.00;99.90;;;;;;5093960;28;20039;-74
2022/01/09 06:10:24;;;;;;;26.60;3.95;;;6.00;99.90;;;;;;5082780;28;20029;-74
2022/01/09 06:12:50;;;;;;;24.52;3.60;;;5.90;99.90;;;;;;5073599;28;20477;-74
2022/01/09 06:15:16;;;;;;;15.30;2.28;;;6.00;99.90;;;;;;5072960;28;20359;-74
2022/01/09 06:17:43;;;;;;;37.90;3.58;;;5.90;99.90;;;;;;5073626;28;20025;-74
2022/01/09 06:20:11;;;;;;;10.82;1.90;;;5.90;99.90;;;;;;5073380;28;20519;-75
2022/01/09 06:22:37;;;;;;;19.50;2.65;;;6.00;99.90;;;;;;5073655;28;20234;-74
2022/01/09 06:25:03;;;;;;;13.88;1.95;;;6.00;99.90;;;;;;5073421;28;20060;-74
2022/01/09 06:27:29;;;;;;;18.58;2.38;;;5.90;99.90;;;;;;5073600;28;20029;-74
2022/01/09 06:29:54;;;;;;;20.00;2.15;;;5.80;99.90;;;;;;5073207;28;20063;-74
2022/01/09 06:32:20;;;;;;;22.15;3.05;;;5.70;99.90;;;;;;5073170;28;20021;-74
2022/01/09 06:34:45;;;;;;;18.60;2.50;;;5.60;99.90;;;;;;5073109;28;20467;-74
2022/01/09 06:37:12;;;;;;;13.25;2.00;;;5.60;99.90;;;;;;5073415;28;20020;-74
2022/01/09 06:39:39;;;;;;;17.33;2.30;;;;;;;;;;5090131;28;20035;-75
2022/01/09 06:42:05;;;;;;;20.08;2.00;;;;;;;;;;5093396;28;20085;-75
2022/01/09 06:44:31;;;;;;;14.77;2.50;;;;;;;;;;5093058;28;20135;-74
2022/01/09 06:46:57;;;;;;;16.58;1.95;;;;;;;;;;5093301;28;20024;-74
2022/01/09 06:49:23;;;;;;;14.50;2.40;;;;;;;;;;5093094;28;20484;-74
2022/01/09 06:51:49;;;;;;;15.75;2.08;;;;;;;;;;5093176;28;20028;-74
2022/01/09 06:54:15;;;;;;;25.55;2.75;;;;;;;;;;5093047;28;20016;-74
2022/01/09 06:56:42;;;;;;;19.08;2.47;;;;;;;;;;5093318;28;20103;-74
2022/01/09 06:59:08;;;;;;;18.40;3.10;;;;;;;;;;5074295;28;20437;-74
2022/01/09 07:01:35;;;;;;;14.77;2.63;;;;;;;;;;5093001;28;20078;-74
2022/01/09 07:04:01;;;;;;;24.20;2.20;;;;;;;;;;5092799;28;20035;-74
2022/01/09 07:06:27;;;;;;;13.82;1.98;;;;;;;;;;5093189;28;20338;-74
2022/01/09 07:08:53;;;;;;;18.27;2.30;;;;;;;;;;5103006;28;20515;-74
2022/01/09 07:11:19;;;;;;;12.18;2.30;;;;;;;;;;5082650;28;20038;-74
2022/01/09 07:13:45;;;;;;;13.85;2.92;;;;;;;;;;5103432;28;20023;-74
2022/01/09 07:16:11;;;;;;;20.65;2.60;;;;;;;;;;5100911;28;20530;-74
2022/01/09 07:18:37;;;;;;;13.10;2.45;;;;;;;;;;5100760;28;20028;-74
2022/01/09 07:21:03;;;;;;;22.40;2.22;;;;;;;;;;5100761;28;20077;-74
2022/01/09 07:23:30;;;;;;;19.35;2.45;;;;;;;;;;5098632;28;20027;-74
2022/01/09 07:25:56;;;;;;;14.00;2.38;;;;;;;;;;5104456;28;20100;-74
2022/01/09 07:28:22;;;;;;;21.15;3.13;;;;;;;;;;5101251;28;20028;-74
2022/01/09 07:30:48;;;;;;;18.33;2.03;;;;;;;;;;5103208;28;20084;-74
2022/01/09 07:33:14;;;;;;;13.13;2.33;;;;;;;;;;5101691;28;20020;-75
2022/01/09 07:35:40;;;;;;;15.73;2.83;;;;;;;;;;5101610;28;20112;-74
2022/01/09 07:38:06;;;;;;;19.48;2.70;;;;;;;;;;5102822;28;20339;-74
2022/01/09 07:40:32;;;;;;;16.58;2.50;;;;;;;;;;5101451;28;20137;-74
2022/01/09 07:42:58;;;;;;;17.20;2.67;;;;;;;;;;5100970;28;20523;-74
2022/01/09 07:45:27;;;;;;;20.63;2.38;;;;;;;;;;5100254;28;20508;-74
2022/01/09 07:47:54;;;;;;;16.48;2.15;;;;;;;;;;5102525;28;20027;-74
2022/01/09 07:50:20;;;;;;;12.27;1.92;;;;;;;;;;5102477;28;20051;-74
2022/01/09 07:52:46;;;;;;;19.40;2.85;;;;;;;;;;5076429;28;20016;-74
2022/01/09 07:55:12;;;;;;;13.65;2.35;;;;;;;;;;5101514;28;20116;-74
2022/01/09 07:57:38;;;;;;;16.20;2.72;;;;;;;;;;5103850;28;20051;-75
2022/01/09 08:00:06;;;;;;;13.82;2.08;;;;;;;;;;5100568;28;20108;-74
2022/01/09 08:02:32;;;;;;;16.60;2.25;;;;;;;;;;5101205;28;20024;-74
2022/01/09 08:04:58;;;;;;;11.65;2.10;;;;;;;;;;5103408;28;20069;-74
2022/01/09 08:07:25;;;;;;;14.45;2.15;;;;;;;;;;5100586;28;20047;-74
2022/01/09 08:09:51;;;;;;;19.85;2.25;;;;;;;;;;5103119;28;20036;-74
2022/01/09 08:12:17;;;;;;;19.45;2.72;;;;;;;;;;5101570;28;20027;-74
2022/01/09 08:14:43;;;;;;;17.05;2.95;;;;;;;;;;5102486;28;20150;-74
2022/01/09 08:17:09;;;;;;;15.65;2.67;;;;;;;;;;5097961;28;20095;-74
2022/01/09 08:19:36;;;;;;;17.92;3.00;;;;;;;;;;5101700;28;20077;-74
2022/01/09 08:22:03;;;;;;;14.07;2.40;;;;;;;;;;5104062;28;20414;-75
2022/01/09 08:24:29;;;;;;;18.27;2.72;;;;;;;;;;5101277;28;20085;-74
2022/01/09 08:26:55;;;;;;;18.05;3.00;;;;;;;;;;5094983;28;20041;-74
2022/01/09 08:29:21;;;;;;;14.00;2.42;;;;;;;;;;5093676;28;20024;-74
2022/01/09 08:31:47;;;;;;;14.50;2.15;;;;;;;;;;5096445;28;20016;-74
2022/01/09 08:34:13;;;;;;;11.15;1.90;;;;;;;;;;5096533;28;20030;-74
2022/01/09 08:36:39;;;;;;;13.63;3.20;;;;;;;;;;5096773;28;20394;-74
2022/01/09 08:39:06;;;;;;;11.70;1.88;;;;;;;;;;5102354;28;20061;-74
2022/01/09 08:41:35;;;;;;;23.42;2.85;;;;;;;;;;5084992;28;20024;-74
2022/01/09 08:44:01;;;;;;;17.55;2.40;;;;;;;;;;5105551;28;20034;-74
2022/01/09 08:46:28;;;;;;;16.77;2.15;;;;;;;;;;5086153;28;20422;-74
2022/01/09 08:48:54;;;;;;;19.77;2.60;;;;;;;;;;5104676;28;20062;-74
2022/01/09 08:51:20;;;;;;;21.05;2.88;;;;;;;;;;5105579;28;20031;-74
2022/01/09 08:53:50;;;;;;;12.55;2.08;;;;;;;;;;5100400;28;20096;-74
2022/01/09 08:56:18;;;;;;;14.75;1.90;;;;;;;;;;5097132;28;20017;-74
2022/01/09 08:58:44;;;;;;;11.93;2.00;;;;;;;;;;5100424;28;20078;-74
2022/01/09 09:01:11;;;;;;;13.65;2.30;;;;;;;;;;5100286;28;20498;-74
2022/01/09 09:03:40;;;;;;;15.52;2.50;;;;;;;;;;5109059;28;20035;-74
2022/01/09 09:06:07;;;;;;;14.82;2.22;;;;;;;;;;5102334;28;20035;-74
2022/01/09 09:08:34;;;;;;;14.27;1.92;;;;;;;;;;5106720;28;20059;-74
2022/01/09 09:11:00;;;;;;;10.85;1.73;;;;;;;;;;5107816;28;20030;-74
2022/01/09 09:13:26;;;;;;;10.20;1.80;;;;;;;;;;5084728;28;20030;-74
2022/01/09 09:15:52;;;;;;;13.25;2.10;;;;;;;;;;5107471;28;20023;-74
2022/01/09 09:18:18;;;;;;;16.75;2.30;;;;;;;;;;5112583;28;20020;-74
2022/01/09 09:20:44;;;;;;;11.88;1.83;;;;;;;;;;5099496;28;20026;-74
2022/01/09 09:23:10;;;;;;;14.52;2.35;;;;;;;;;;5106225;28;20023;-74
2022/01/09 09:25:36;;;;;;;18.52;2.95;;;;;;;;;;5103859;28;20036;-74
2022/01/09 09:28:06;;;;;;;14.43;2.13;;;;;;;;;;5082299;28;20352;-75
2022/01/09 09:30:32;;;;;;;15.70;2.13;;;;;;;;;;5103930;28;20469;-74
2022/01/09 09:33:02;;;;;;;15.68;2.20;;;;;;;;;;5111937;28;20354;-74
2022/01/09 09:35:28;;;;;;;15.88;2.05;;;;;;;;;;5115473;28;20019;-74
2022/01/09 09:37:55;;;;;;;11.43;1.95;;;;;;;;;;5110618;28;20032;-74
2022/01/09 09:40:21;;;;;;;10.20;2.00;;;;;;;;;;5103371;28;20028;-74
2022/01/09 09:42:47;;;;;;;17.33;2.45;;;;;;;;;;5081225;28;20508;-74
2022/01/09 09:45:13;;;;;;;14.85;1.80;;;;;;;;;;5103098;28;20107;-74
2022/01/09 09:47:40;;;;;;;17.60;2.30;;;;;;;;;;5106075;28;20362;-74
2022/01/09 09:50:07;;;;;;;14.00;2.78;;;;;;;;;;5096462;28;20042;-74
2022/01/09 09:52:33;;;;;;;14.57;2.42;;;;;;;;;;5114746;28;20053;-74
2022/01/09 09:55:00;;;;;;;18.08;3.28;;;;;;;;;;5114470;28;20034;-74
2022/01/09 09:57:26;;;;;;;14.85;2.10;;;;;;;;;;5114948;28;20027;-74
2022/01/09 09:59:59;;;;;;;12.15;2.03;;;;;;;;;;5114554;28;20039;-74
2022/01/09 10:02:25;;;;;;;18.63;2.55;;;;;;;;;;5114762;28;20031;-74
2022/01/09 10:04:57;;;;;;;12.48;1.80;;;;;;;;;;5114507;28;20026;-78
2022/01/09 10:07:23;;;;;;;;;;;;;;;;;;5114924;28;20023;-75
2022/01/09 10:10:09;;;;;;;10.40;1.80;;;;;;;;;;5102692;28;19939;-74
2022/01/09 10:12:36;;;;;;;17.02;2.50;;;;;;;;;;5102100;28;20543;-74
2022/01/09 10:15:04;;;;;;;16.30;2.28;;;;;;;;;;5102709;28;20012;-74
2022/01/09 10:17:31;;;;;;;15.85;2.70;;;;;;;;;;5102862;28;20023;-74
2022/01/09 10:19:57;;;;;;;14.40;2.38;;;;;;;;;;5101744;28;20019;-75
2022/01/09 10:22:26;;;;;;;14.93;2.42;;;;;;;;;;5101572;28;20074;-74
2022/01/09 10:24:52;;;;;;;9.57;2.03;;;5.70;99.90;;;;;;5098230;28;20024;-75
2022/01/09 10:27:36;;;;;;;14.63;2.45;;;5.70;99.90;;;;;;5102518;28;20081;-75
2022/01/09 10:30:04;;;;;;;12.73;1.98;;;5.70;99.90;;;;;;5104485;28;20522;-75
2022/01/09 10:32:31;;;;;;;16.27;2.30;;;5.60;99.90;;;;;;5103325;28;20425;-74
2022/01/09 10:35:23;;;;;;;13.63;2.25;;;5.70;99.90;;;;;;5102280;28;20028;-74
2022/01/09 10:38:03;;;;;;;8.45;1.98;;;5.60;99.90;;;;;;5099047;28;20032;-74
2022/01/09 10:40:30;;;;;;;15.95;2.20;;;5.70;99.90;;;;;;5084842;28;20051;-74
2022/01/09 10:43:18;;;;;;;15.93;2.47;;;5.60;99.90;;;;;;5102440;28;20025;-74
2022/01/09 10:45:58;;;;;;;16.20;2.60;;;5.70;99.90;;;;;;5099466;28;20405;-74
2022/01/09 10:48:37;;;;;;;13.85;2.20;;;5.90;99.90;;;;;;5099538;28;20039;-72
2022/01/09 10:51:05;;;;;;;13.00;2.30;;;6.10;99.90;;;;;;5095579;28;20035;-74
2022/01/09 10:53:33;;;;;;;12.93;2.83;;;6.10;99.90;;;;;;5102747;28;20031;-74
2022/01/09 10:56:07;;;;;;;23.80;3.22;;;6.30;99.90;;;;;;5102097;28;20157;-73
2022/01/09 10:58:36;;;;;;;18.35;3.30;;;6.30;99.90;;;;;;5102568;28;20024;-74
2022/01/09 11:01:12;;;;;;;20.35;2.70;;;6.40;99.90;;;;;;5103735;28;20080;-74
2022/01/09 11:03:39;;;;;;;21.05;2.75;;;6.60;99.90;;;;;;5103423;28;20417;-74
2022/01/09 11:06:08;;;;;;;12.40;2.20;;;6.80;99.90;;;;;;5107046;28;20109;-74
2022/01/09 11:08:35;;;;;;;14.73;2.40;;;7.00;99.90;;;;;;5102526;28;20056;-74
2022/01/09 11:11:03;;;;;;;17.48;2.35;;;7.00;99.90;;;;;;5097064;28;20049;-74
2022/01/09 11:13:29;;;;;;;18.42;2.70;;;7.00;99.90;;;;;;5094848;28;20023;-74
2022/01/09 11:18:42;;;;;;;16.00;2.67;;;6.90;99.90;;;;;;5097205;28;20358;-74
2022/01/09 11:21:09;;;;;;;21.08;3.00;;;6.90;99.90;;;;;;5094579;28;20028;-74
2022/01/09 11:23:55;;;;;;;16.73;2.80;;;6.90;99.90;;;;;;5092444;28;20075;-74
2022/01/09 11:26:39;;;;;;;15.38;1.70;;;6.90;99.90;;;;;;5092483;28;20032;-75
2022/01/09 11:29:09;;;;;;;14.13;1.90;;;6.90;99.90;;;;;;5102187;28;20099;-74
2022/01/09 11:32:02;;;;;;;22.77;2.65;;;6.90;99.90;;;;;;5093457;28;20064;-74
2022/01/09 11:35:19;;;;;;;15.30;2.40;;;6.90;99.90;;;;;;5094740;28;20024;-73
2022/01/09 11:38:05;;;;;;;13.23;2.08;;;6.90;99.90;;;;;;4987878;28;20414;-73
2022/01/09 11:40:32;;;;;;;17.42;2.22;;;6.90;99.90;;;;;;4983079;28;20040;-73
2022/01/09 11:43:14;;;;;;;11.25;1.67;;;6.90;99.90;;;;;;5009755;28;20041;-74
2022/01/09 11:46:01;;;;;;;14.20;2.72;;;6.90;99.90;;;;;;4980996;28;20171;-73
2022/01/09 11:48:51;;;;;;;16.77;3.50;;;6.90;99.90;;;;;;4970002;28;20047;-73
2022/01/09 11:51:30;;;;;;;10.82;2.20;;;6.90;99.90;;;;;;4969581;28;20062;-73
2022/01/09 11:54:10;;;;;;;13.60;2.30;;;7.10;99.90;;;;;;4970407;28;20056;-73
2022/01/09 11:56:54;;;;;;;22.05;4.82;;;7.20;99.90;;;;;;4969729;28;20031;-73
2022/01/09 11:59:29;;;;;;;22.08;3.90;;;7.30;99.90;;;;;;4970590;28;20462;-73
2022/01/09 12:02:01;;;;;;;5.95;1.42;;;7.20;99.90;;;;;;4970389;28;20079;-74
2022/01/09 12:04:40;;;;;;;15.90;1.47;;;7.20;99.90;;;;;;4970485;28;20058;-74
2022/01/09 12:07:13;;;;;;;15.20;1.83;;;7.30;99.90;;;;;;4970592;28;20262;-74
2022/01/09 12:09:48;;;;;;;11.82;2.70;;;7.50;99.90;;;;;;5038668;28;20383;-73
2022/01/09 12:12:20;;;;;;;9.80;1.65;;;7.60;99.90;;;;;;5071646;28;20024;-74
2022/01/09 12:14:53;;;;;;;;;;;7.60;99.90;;;;;;5071888;28;20487;-73
2022/01/09 12:17:21;;;;;;;;;;;7.50;99.90;;;;;;5072020;28;19904;-73
2022/01/09 12:20:12;;;;;;;10.20;1.85;;;7.50;99.90;;;;;;5071578;28;19913;-73
2022/01/09 12:22:43;;;;;;;10.02;1.50;;;7.50;99.90;;;;;;5071484;28;20025;-74
2022/01/09 12:25:08;;;;;;;14.95;1.55;;;7.70;99.90;;;;;;5071193;28;20048;-73
2022/01/09 12:27:46;;;;;;;13.77;2.45;;;7.70;99.90;;;;;;5071479;28;20071;-74
2022/01/09 12:30:50;;;;;;;11.27;2.00;;;7.70;99.90;;;;;;5071599;28;20029;-73
2022/01/09 12:33:20;;;;;;;12.93;2.28;;;7.90;99.90;;;;;;5057485;28;20031;-74
2022/01/09 12:36:03;;;;;;;12.63;1.85;;;7.90;99.90;;;;;;5075491;28;20487;-73
2022/01/09 12:38:30;;;;;;;12.43;2.05;;;8.10;99.90;;;;;;5082679;28;20459;-74
2022/01/09 12:41:07;;;;;;;18.33;1.85;;;8.10;99.90;;;;;;5095830;28;20127;-73
2022/01/09 12:43:35;;;;;;;11.82;2.33;;;8.10;99.90;;;;;;5095384;28;20051;-73
2022/01/09 12:46:09;;;;;;;12.13;1.80;;;8.10;99.90;;;;;;5095391;28;20043;-73
2022/01/09 12:48:35;;;;;;;14.65;1.73;;;8.00;99.90;;;;;;5095406;28;20554;-74
2022/01/09 12:51:08;;;;;;;16.75;2.25;;;8.10;99.90;;;;;;5095296;28;20043;-72
2022/01/09 12:53:43;;;;;;;12.13;2.22;;;7.90;99.90;;;;;;5095162;28;20467;-73
2022/01/09 12:56:17;;;;;;;8.15;1.27;;;7.70;99.90;;;;;;5095315;28;20070;-73
2022/01/09 12:58:56;;;;;;;5.93;1.10;;;7.00;99.90;;;;;;5095303;28;20111;-73
2022/01/09 13:01:31;;;;;;;2.95;0.90;;;6.90;99.90;;;;;;5095352;28;20032;-74
2022/01/09 13:04:06;;;;;;;3.65;1.00;;;6.70;99.90;;;;;;5088984;28;20033;-72
2022/01/09 13:06:34;;;;;;;6.55;1.10;;;6.40;99.90;;;;;;5080415;28;20036;-73
2022/01/09 13:09:04;;;;;;;7.00;2.78;;;6.20;99.90;;;;;;5086214;28;20479;-73
2022/01/09 13:11:31;;;;;;;7.68;1.95;;;6.40;99.90;;;;;;5081574;28;20231;-73
2022/01/09 13:13:59;;;;;;;8.98;2.00;;;6.30;99.90;;;;;;5082152;28;20498;-73
2022/01/09 13:16:35;;;;;;;4.18;1.85;;;6.30;99.90;;;;;;5083119;28;20095;-73
2022/01/09 13:19:13;;;;;;;8.27;2.10;;;6.40;99.90;;;;;;5084759;28;20019;-73
2022/01/09 13:21:47;;;;;;;7.68;1.90;;;6.40;99.90;;;;;;5082506;28;20497;-73
2022/01/09 13:24:17;;;;;;;11.45;2.92;;;6.40;99.90;;;;;;5080902;28;20038;-73
2022/01/09 13:26:53;;;;;;;11.52;2.58;;;6.60;99.90;;;;;;5084810;28;20083;-72
2022/01/09 13:29:42;;;;;;;15.25;3.15;;;6.70;99.90;;;;;;5082182;28;20016;-73
2022/01/09 13:32:08;;;;;;;16.33;2.40;;;6.70;99.90;;;;;;5075950;28;20526;-72
2022/01/09 13:34:40;;;;;;;10.07;2.40;;;6.50;99.90;;;;;;5055556;28;20028;-73
2022/01/09 13:37:11;;;;;;;10.80;2.40;;;6.50;99.90;;;;;;5059436;28;20017;-73
2022/01/09 13:39:39;;;;;;;7.10;2.05;;;6.50;99.90;;;;;;5081522;28;20024;-72
2022/01/09 13:42:08;;;;;;;10.75;2.53;;;6.40;99.90;;;;;;5081158;28;20526;-73
2022/01/09 13:44:42;;;;;;;17.83;2.40;;;6.40;99.90;;;;;;5083697;28;20029;-72
2022/01/09 13:47:12;;;;;;;14.60;2.38;;;6.30;99.90;;;;;;5100918;28;20093;-73
2022/01/09 13:49:40;;;;;;;14.35;2.85;;;6.30;99.90;;;;;;5103021;28;20470;-72
2022/01/09 13:52:18;;;;;;;12.73;2.50;;;6.40;99.90;;;;;;5105544;28;20044;-73
2022/01/09 13:54:55;;;;;;;15.75;3.28;;;6.20;99.90;;;;;;5094294;28;20036;-73
2022/01/09 13:57:25;;;;;;;9.50;2.33;;;6.10;99.90;;;;;;5094649;28;20035;-73
2022/01/09 13:59:51;;;;;;;14.93;3.55;;;6.10;99.90;;;;;;5111485;28;20028;-73
2022/01/09 14:02:19;;;;;;;19.60;3.28;;;6.10;99.90;;;;;;5091272;28;20542;-73
2022/01/09 14:04:47;;;;;;;13.93;3.30;;;6.10;99.90;;;;;;5104903;28;20438;-72